createdAt,value
2022-10-31T00:00:12.204Z,19
2022-10-31T00:01:12.173Z,18.975
2022-10-31T00:02:11.424Z,18.97
2022-10-31T00:03:11.672Z,18.94
2022-10-31T00:04:11.781Z,18.935
2022-10-31T00:05:15.500Z,18.916
2022-10-31T00:06:11.657Z,18.929
2022-10-31T00:07:11.773Z,18.945
2022-10-31T00:08:12.302Z,18.92
2022-10-31T00:09:12.008Z,18.91
2022-10-31T00:10:11.568Z,18.867
2022-10-31T00:11:12.103Z,18.85
2022-10-31T00:12:11.573Z,18.856
2022-10-31T00:13:15.975Z,18.8
2022-10-31T00:14:11.940Z,18.78
2022-10-31T00:15:11.726Z,18.78
2022-10-31T00:16:11.607Z,18.77
2022-10-31T00:17:11.636Z,18.775
2022-10-31T00:18:11.821Z,18.72
2022-10-31T00:19:11.439Z,18.666
2022-10-31T00:20:12.154Z,18.6258
2022-10-31T00:21:11.580Z,18.6208
2022-10-31T00:22:11.401Z,18.575
2022-10-31T00:23:12.009Z,18.545
2022-10-31T00:24:12.433Z,18.57
2022-10-31T00:25:10.904Z,18.585
2022-10-31T00:26:11.462Z,18.61
2022-10-31T00:27:11.811Z,18.59
2022-10-31T00:28:10.684Z,18.585
2022-10-31T00:29:11.305Z,18.626
2022-10-31T00:30:11.432Z,18.637
2022-10-31T00:31:12.131Z,18.6316
2022-10-31T00:32:11.666Z,18.6783
2022-10-31T00:33:11.532Z,18.655
2022-10-31T00:34:11.876Z,18.649
2022-10-31T00:35:11.939Z,18.69
2022-10-31T00:36:11.220Z,18.7
2022-10-31T00:37:11.782Z,18.6891
2022-10-31T00:38:11.044Z,18.6841
2022-10-31T00:39:12.159Z,18.6841
2022-10-31T00:40:11.716Z,18.695
2022-10-31T00:41:11.243Z,18.6954
2022-10-31T00:42:11.607Z,18.673
2022-10-31T00:44:11.760Z,18.651
2022-10-31T00:45:12.026Z,18.6253
2022-10-31T00:46:11.068Z,18.6327
2022-10-31T00:47:11.952Z,18.652
2022-10-31T00:48:11.372Z,18.639
2022-10-31T00:49:12.391Z,18.6253
2022-10-31T00:50:11.825Z,18.56
2022-10-31T00:51:11.090Z,18.525
2022-10-31T00:52:12.193Z,18.54
2022-10-31T00:53:11.581Z,18.565
2022-10-31T00:54:11.620Z,18.595
2022-10-31T00:55:12.517Z,18.632
2022-10-31T00:56:11.980Z,18.683
2022-10-31T00:57:11.959Z,18.672
2022-10-31T00:58:11.509Z,18.6841
2022-10-31T00:59:12.086Z,18.7
2022-10-31T01:00:11.498Z,18.682
2022-10-31T01:01:12.143Z,18.6841
2022-10-31T01:02:12.374Z,18.643
2022-10-31T01:03:16.778Z,18.666
2022-10-31T01:04:13.095Z,18.666
2022-10-31T01:05:11.637Z,18.6783
2022-10-31T01:06:11.769Z,18.666
2022-10-31T01:07:12.140Z,18.649
2022-10-31T01:08:11.936Z,18.66
2022-10-31T01:09:12.378Z,18.637
2022-10-31T01:10:12.643Z,18.649
2022-10-31T01:11:12.103Z,18.672
2022-10-31T01:12:12.108Z,18.6208
2022-10-31T01:13:12.168Z,18.6258
2022-10-31T01:14:11.346Z,18.6208
2022-10-31T01:15:12.317Z,18.6258
2022-10-31T01:16:11.897Z,18.637
2022-10-31T01:17:11.999Z,18.644
2022-10-31T01:18:12.576Z,18.6316
2022-10-31T01:19:12.135Z,18.6316
2022-10-31T01:20:11.786Z,18.59
2022-10-31T01:21:12.584Z,18.58
2022-10-31T01:22:12.081Z,18.565
2022-10-31T01:23:12.211Z,18.56
2022-10-31T01:24:12.281Z,18.56
2022-10-31T01:25:12.511Z,18.555
2022-10-31T01:26:11.739Z,18.55
2022-10-31T01:27:12.616Z,18.54
2022-10-31T01:28:11.798Z,18.545
2022-10-31T01:29:12.102Z,18.52
2022-10-31T01:30:12.324Z,18.52
2022-10-31T01:31:12.749Z,18.515
2022-10-31T01:32:11.960Z,18.515
2022-10-31T01:33:12.955Z,18.505
2022-10-31T01:34:12.580Z,18.49
2022-10-31T01:35:13.006Z,18.495
2022-10-31T01:36:12.387Z,18.475
2022-10-31T01:37:11.867Z,18.49
2022-10-31T01:38:13.144Z,18.485
2022-10-31T01:39:16.774Z,18.472
2022-10-31T01:40:12.520Z,18.4945
2022-10-31T01:41:13.081Z,18.46
2022-10-31T01:42:12.671Z,18.45
2022-10-31T01:43:13.258Z,18.415
2022-10-31T01:44:12.021Z,18.435
2022-10-31T01:45:12.898Z,18.45
2022-10-31T01:46:12.948Z,18.42
2022-10-31T01:47:11.967Z,18.395
2022-10-31T01:48:12.192Z,18.385
2022-10-31T01:49:12.269Z,18.385
2022-10-31T01:50:12.826Z,18.39
2022-10-31T01:51:12.807Z,18.39
2022-10-31T01:52:12.369Z,18.3741
2022-10-31T01:53:12.269Z,18.385
2022-10-31T01:54:13.030Z,18.394
2022-10-31T01:55:12.282Z,18.3683
2022-10-31T01:56:11.834Z,18.339
2022-10-31T01:57:12.868Z,18.362
2022-10-31T01:58:12.631Z,18.356
2022-10-31T01:59:12.454Z,18.339
2022-10-31T02:00:11.962Z,18.35
2022-10-31T02:01:12.871Z,18.35
2022-10-31T02:02:12.350Z,18.3227
2022-10-31T02:03:12.642Z,18.3053
2022-10-31T02:04:12.283Z,18.3216
2022-10-31T02:05:12.398Z,18.3108
2022-10-31T02:06:12.382Z,18.29
2022-10-31T02:07:14.000Z,18.31
2022-10-31T02:08:13.173Z,18.332
2022-10-31T02:09:12.644Z,18.3158
2022-10-31T02:10:11.809Z,18.31
2022-10-31T02:11:12.753Z,18.3007
2022-10-31T02:12:12.479Z,18.2772
2022-10-31T02:13:12.302Z,18.285
2022-10-31T02:14:12.787Z,18.277
2022-10-31T02:15:12.345Z,18.2881
2022-10-31T02:16:11.802Z,18.26
2022-10-31T02:17:12.683Z,18.28
2022-10-31T02:18:11.946Z,18.24
2022-10-31T02:19:12.878Z,18.22
2022-10-31T02:20:12.881Z,18.225
2022-10-31T02:21:11.702Z,18.225
2022-10-31T02:22:12.085Z,18.22
2022-10-31T02:23:12.301Z,18.215
2022-10-31T02:24:12.648Z,18.1891
2022-10-31T02:25:12.490Z,18.1841
2022-10-31T02:26:11.024Z,18.166
2022-10-31T02:27:12.659Z,18.166
2022-10-31T02:28:11.900Z,18.149
2022-10-31T02:29:12.904Z,18.149
2022-10-31T02:30:12.976Z,18.1316
2022-10-31T02:31:12.000Z,18.1258
2022-10-31T02:32:12.495Z,18.095
2022-10-31T02:33:12.536Z,18.095
2022-10-31T02:34:10.938Z,18.105
2022-10-31T02:35:12.492Z,18.1316
2022-10-31T02:36:12.149Z,18.105
2022-10-31T02:37:11.992Z,18.115
2022-10-31T02:38:12.119Z,18.09
2022-10-31T02:39:11.950Z,18.06
2022-10-31T02:40:11.510Z,18.065
2022-10-31T02:41:12.490Z,18.05
2022-10-31T02:42:14.790Z,18.04
2022-10-31T02:43:11.235Z,18.015
2022-10-31T02:44:11.839Z,18.025
2022-10-31T02:45:12.306Z,18.01
2022-10-31T02:46:11.680Z,17.995
2022-10-31T02:47:11.943Z,18
2022-10-31T02:48:11.819Z,17.99
2022-10-31T02:49:11.913Z,17.99
2022-10-31T02:50:12.347Z,18.015
2022-10-31T02:51:11.811Z,18.015
2022-10-31T02:52:11.292Z,17.98
2022-10-31T02:53:12.107Z,17.985
2022-10-31T02:54:11.218Z,17.975
2022-10-31T02:55:12.000Z,17.96
2022-10-31T02:56:11.929Z,17.97
2022-10-31T02:57:11.896Z,17.99
2022-10-31T02:58:12.704Z,18.005
2022-10-31T02:59:11.717Z,18.02
2022-10-31T03:00:11.705Z,18.035
2022-10-31T03:01:12.646Z,18.03
2022-10-31T03:02:16.894Z,18.0138
2022-10-31T03:03:11.740Z,18.0163
2022-10-31T03:04:12.263Z,17.995
2022-10-31T03:05:11.896Z,18
2022-10-31T03:06:10.856Z,18.01
2022-10-31T03:07:12.275Z,18.025
2022-10-31T03:08:10.705Z,18.02
2022-10-31T03:09:11.542Z,18.005
2022-10-31T03:10:11.215Z,17.985
2022-10-31T03:11:11.884Z,17.985
2022-10-31T03:12:11.931Z,18
2022-10-31T03:13:10.702Z,17.99
2022-10-31T03:14:11.946Z,17.975
2022-10-31T03:15:11.629Z,17.99
2022-10-31T03:16:11.084Z,17.97
2022-10-31T03:17:12.107Z,17.93
2022-10-31T03:18:11.914Z,17.92
2022-10-31T03:19:11.200Z,17.925
2022-10-31T03:20:12.264Z,17.94
2022-10-31T03:21:11.769Z,17.94
2022-10-31T03:22:11.343Z,17.95
2022-10-31T03:23:11.718Z,17.94
2022-10-31T03:24:11.863Z,17.95
2022-10-31T03:25:11.479Z,17.92
2022-10-31T03:26:11.687Z,17.91
2022-10-31T03:27:11.761Z,17.8791
2022-10-31T03:28:10.976Z,17.8854
2022-10-31T03:29:11.436Z,17.868
2022-10-31T03:30:11.667Z,17.839
2022-10-31T03:31:15.950Z,17.8109
2022-10-31T03:32:11.451Z,17.847
2022-10-31T03:33:11.556Z,17.841
2022-10-31T03:34:11.181Z,17.856
2022-10-31T03:35:11.872Z,17.858
2022-10-31T03:36:12.184Z,17.8227
2022-10-31T03:37:10.951Z,17.8158
2022-10-31T03:38:15.880Z,17.795
2022-10-31T03:39:12.151Z,17.79
2022-10-31T03:40:11.422Z,17.785
2022-10-31T03:41:12.261Z,17.75
2022-10-31T03:42:11.720Z,17.75
2022-10-31T03:43:11.254Z,17.735
2022-10-31T03:44:12.025Z,17.72
2022-10-31T03:45:11.585Z,17.695
2022-10-31T03:46:11.267Z,17.687
2022-10-31T03:47:11.456Z,17.7
2022-10-31T03:48:11.500Z,17.67
2022-10-31T03:49:17.259Z,17.666
2022-10-31T03:50:11.499Z,17.649
2022-10-31T03:51:11.608Z,17.6316
2022-10-31T03:52:12.183Z,17.643
2022-10-31T03:53:11.807Z,17.615
2022-10-31T03:54:11.364Z,17.575
2022-10-31T03:55:11.729Z,17.575
2022-10-31T03:56:11.690Z,17.57
2022-10-31T03:57:11.808Z,17.565
2022-10-31T03:58:11.895Z,17.55
2022-10-31T03:59:11.795Z,17.545
2022-10-31T04:00:11.494Z,17.54
2022-10-31T04:01:12.185Z,17.54
2022-10-31T04:02:15.599Z,17.5415
2022-10-31T04:03:11.748Z,17.5218
2022-10-31T04:04:11.776Z,17.51
2022-10-31T04:05:11.701Z,17.515
2022-10-31T04:06:11.760Z,17.48
2022-10-31T04:07:11.684Z,17.45
2022-10-31T04:08:11.811Z,17.435
2022-10-31T04:09:11.951Z,17.405
2022-10-31T04:10:11.523Z,17.395
2022-10-31T04:11:12.542Z,17.3791
2022-10-31T04:12:12.007Z,17.362
2022-10-31T04:13:11.789Z,17.3683
2022-10-31T04:14:12.180Z,17.3791
2022-10-31T04:15:11.749Z,17.3741
2022-10-31T04:16:14.349Z,17.333
2022-10-31T04:17:12.294Z,17.311
2022-10-31T04:18:15.746Z,17.295
2022-10-31T04:19:12.111Z,17.285
2022-10-31T04:20:12.138Z,17.27
2022-10-31T04:21:12.359Z,17.26
2022-10-31T04:22:11.738Z,17.21
2022-10-31T04:23:14.678Z,17.149
2022-10-31T04:24:12.503Z,17.137
2022-10-31T04:25:12.146Z,17.149
2022-10-31T04:26:12.210Z,17.1783
2022-10-31T04:27:11.672Z,17.195
2022-10-31T04:28:12.416Z,17.195
2022-10-31T04:29:12.039Z,17.195
2022-10-31T04:30:12.634Z,17.194
2022-10-31T04:31:12.576Z,17.172
2022-10-31T04:32:11.812Z,17.172
2022-10-31T04:33:12.649Z,17.177
2022-10-31T04:34:12.333Z,17.1783
2022-10-31T04:35:11.943Z,17.166
2022-10-31T04:36:12.580Z,17.1783
2022-10-31T04:37:17.201Z,17.1783
2022-10-31T04:38:14.741Z,17.1841
2022-10-31T04:39:12.287Z,17.143
2022-10-31T04:40:12.161Z,17.137
2022-10-31T04:41:12.758Z,17.166
2022-10-31T04:42:11.880Z,17.16
2022-10-31T04:43:12.736Z,17.143
2022-10-31T04:44:12.399Z,17.1208
2022-10-31T04:45:15.500Z,17.1
2022-10-31T04:46:12.817Z,17.105
2022-10-31T04:47:12.528Z,17.095
2022-10-31T04:48:11.887Z,17.0818
2022-10-31T04:49:12.624Z,17.085
2022-10-31T04:50:12.810Z,17.08
2022-10-31T04:51:12.137Z,17.0818
2022-10-31T04:52:12.283Z,17.1015
2022-10-31T04:53:12.341Z,17.095
2022-10-31T04:54:12.024Z,17.0872
2022-10-31T04:55:12.648Z,17.087
2022-10-31T04:56:12.102Z,17.054
2022-10-31T04:57:12.373Z,17.04
2022-10-31T04:58:12.214Z,17.045
2022-10-31T04:59:12.509Z,17.035
2022-10-31T05:00:11.726Z,17.005
2022-10-31T05:01:12.664Z,16.98
2022-10-31T05:02:12.469Z,17
2022-10-31T05:03:12.821Z,16.995
2022-10-31T05:04:13.381Z,16.995
2022-10-31T05:05:12.947Z,16.995
2022-10-31T05:06:12.612Z,16.985
2022-10-31T05:07:12.522Z,16.97
2022-10-31T05:08:12.328Z,16.95
2022-10-31T05:09:12.908Z,16.935
2022-10-31T05:10:12.473Z,16.955
2022-10-31T05:11:12.855Z,16.925
2022-10-31T05:12:13.136Z,16.899
2022-10-31T05:13:12.754Z,16.862
2022-10-31T05:14:13.051Z,16.856
2022-10-31T05:15:12.978Z,16.85
2022-10-31T05:16:12.282Z,16.816
2022-10-31T05:17:13.257Z,16.8216
2022-10-31T05:18:12.255Z,16.8
2022-10-31T05:19:13.296Z,16.78
2022-10-31T05:20:13.199Z,16.78
2022-10-31T05:21:11.909Z,16.76
2022-10-31T05:22:12.878Z,16.75
2022-10-31T05:23:12.373Z,16.74
2022-10-31T05:24:12.013Z,16.73
2022-10-31T05:25:13.072Z,16.7
2022-10-31T05:26:12.824Z,16.7
2022-10-31T05:27:12.115Z,16.6891
2022-10-31T05:28:11.549Z,16.688
2022-10-31T05:29:11.989Z,16.672
2022-10-31T05:30:12.922Z,16.666
2022-10-31T05:31:12.463Z,16.672
2022-10-31T05:32:11.593Z,16.672
2022-10-31T05:33:13.285Z,16.666
2022-10-31T05:34:12.538Z,16.672
2022-10-31T05:35:11.828Z,16.6783
2022-10-31T05:36:11.961Z,16.643
2022-10-31T05:37:12.412Z,16.643
2022-10-31T05:38:12.400Z,16.637
2022-10-31T05:39:12.455Z,16.637
2022-10-31T05:40:11.491Z,16.6258
2022-10-31T05:41:12.372Z,16.6258
2022-10-31T05:42:12.438Z,16.627
2022-10-31T05:43:16.124Z,16.6153
2022-10-31T05:44:12.620Z,16.609
2022-10-31T05:45:11.697Z,16.595
2022-10-31T05:46:13.038Z,16.575
2022-10-31T05:47:11.515Z,16.57
2022-10-31T05:48:11.326Z,16.565
2022-10-31T05:49:12.360Z,16.575
2022-10-31T05:50:12.399Z,16.57
2022-10-31T05:51:12.026Z,16.595
2022-10-31T05:52:13.013Z,16.585
2022-10-31T05:53:12.225Z,16.57
2022-10-31T05:54:15.813Z,16.54
2022-10-31T05:55:12.327Z,16.525
2022-10-31T05:56:12.405Z,16.525
2022-10-31T05:57:11.532Z,16.515
2022-10-31T05:58:12.553Z,16.51
2022-10-31T05:59:11.398Z,16.5
2022-10-31T06:00:10.218Z,16.475
2022-10-31T06:01:12.123Z,16.48
2022-10-31T06:02:11.976Z,16.46
2022-10-31T06:03:16.025Z,16.445
2022-10-31T06:04:12.106Z,16.44
2022-10-31T06:05:12.041Z,16.42
2022-10-31T06:06:09.913Z,16.41
2022-10-31T06:07:12.135Z,16.4
2022-10-31T06:08:11.270Z,16.388
2022-10-31T06:09:11.310Z,16.373
2022-10-31T06:10:11.289Z,16.3791
2022-10-31T06:11:11.269Z,16.3683
2022-10-31T06:12:11.194Z,16.3854
2022-10-31T06:13:11.418Z,16.358
2022-10-31T06:14:11.197Z,16.384
2022-10-31T06:15:11.650Z,16.36
2022-10-31T06:16:11.538Z,16.358
2022-10-31T06:17:11.997Z,16.354
2022-10-31T06:18:11.260Z,16.331
2022-10-31T06:19:11.892Z,16.339
2022-10-31T06:20:11.793Z,16.299
2022-10-31T06:21:14.919Z,16.306
2022-10-31T06:22:12.319Z,16.3045
2022-10-31T06:23:11.482Z,16.306
2022-10-31T06:24:11.463Z,16.277
2022-10-31T06:25:12.154Z,16.2718
2022-10-31T06:26:11.463Z,16.26
2022-10-31T06:27:12.258Z,16.255
2022-10-31T06:28:17.171Z,16.26
2022-10-31T06:29:11.629Z,16.25
2022-10-31T06:30:12.148Z,16.25
2022-10-31T06:31:12.110Z,16.265
2022-10-31T06:32:11.685Z,16.285
2022-10-31T06:33:11.722Z,16.285
2022-10-31T06:34:15.470Z,16.273
2022-10-31T06:35:11.212Z,16.299
2022-10-31T06:36:11.805Z,16.305
2022-10-31T06:37:11.936Z,16.3
2022-10-31T06:38:11.560Z,16.305
2022-10-31T06:39:13.675Z,16.306
2022-10-31T06:40:11.464Z,16.2772
2022-10-31T06:41:11.467Z,16.295
2022-10-31T06:42:12.062Z,16.29
2022-10-31T06:43:11.598Z,16.3
2022-10-31T06:44:11.797Z,16.31
2022-10-31T06:45:12.428Z,16.3108
2022-10-31T06:46:12.113Z,16.28
2022-10-31T06:47:12.190Z,16.275
2022-10-31T06:48:17.100Z,16.28
2022-10-31T06:49:11.813Z,16.27
2022-10-31T06:50:12.067Z,16.25
2022-10-31T06:51:12.629Z,16.295
2022-10-31T06:52:11.561Z,16.316
2022-10-31T06:53:12.327Z,16.305
2022-10-31T06:54:11.894Z,16.3216
2022-10-31T06:55:11.370Z,16.3216
2022-10-31T06:56:11.733Z,16.327
2022-10-31T06:57:11.705Z,16.355
2022-10-31T06:58:11.356Z,16.39
2022-10-31T06:59:11.984Z,16.425
2022-10-31T07:00:11.751Z,16.43
2022-10-31T07:01:12.773Z,16.455
2022-10-31T07:02:11.723Z,16.455
2022-10-31T07:03:11.663Z,16.47
2022-10-31T07:04:12.282Z,16.48
2022-10-31T07:05:12.223Z,16.47
2022-10-31T07:06:11.300Z,16.46
2022-10-31T07:07:12.297Z,16.465
2022-10-31T07:08:12.046Z,16.475
2022-10-31T07:09:12.410Z,16.485
2022-10-31T07:11:12.090Z,16.52
2022-10-31T07:12:11.850Z,16.515
2022-10-31T07:13:12.137Z,16.54
2022-10-31T07:14:12.185Z,16.57
2022-10-31T07:15:12.059Z,16.565
2022-10-31T07:16:11.603Z,16.575
2022-10-31T07:17:12.059Z,16.595
2022-10-31T07:18:11.928Z,16.6258
2022-10-31T07:19:12.402Z,16.655
2022-10-31T07:20:12.752Z,16.6783
2022-10-31T07:21:11.928Z,16.699
2022-10-31T07:22:12.697Z,16.72
2022-10-31T07:23:12.556Z,16.735
2022-10-31T07:24:11.829Z,16.755
2022-10-31T07:25:12.691Z,16.765
2022-10-31T07:26:12.555Z,16.775
2022-10-31T07:27:11.973Z,16.785
2022-10-31T07:28:12.617Z,16.805
2022-10-31T07:29:12.166Z,16.805
2022-10-31T07:30:11.795Z,16.827
2022-10-31T07:31:12.473Z,16.855
2022-10-31T07:32:12.252Z,16.8683
2022-10-31T07:33:16.453Z,16.8892
2022-10-31T07:34:12.737Z,16.9018
2022-10-31T07:35:11.876Z,16.9181
2022-10-31T07:36:12.477Z,16.9584
2022-10-31T07:37:12.732Z,16.99
2022-10-31T07:38:12.088Z,17.005
2022-10-31T07:39:12.733Z,17.0415
2022-10-31T07:40:12.604Z,17.045
2022-10-31T07:41:11.791Z,17.0872
2022-10-31T07:42:12.649Z,17.105
2022-10-31T07:43:14.570Z,17.149
2022-10-31T07:44:12.026Z,17.188
2022-10-31T07:45:12.548Z,17.215
2022-10-31T07:46:13.426Z,17.245
2022-10-31T07:47:12.019Z,17.29
2022-10-31T07:48:12.472Z,17.3108
2022-10-31T07:49:12.484Z,17.35
2022-10-31T07:50:12.391Z,17.362
2022-10-31T07:51:12.455Z,17.435
2022-10-31T07:52:12.790Z,17.44
2022-10-31T07:53:12.257Z,17.465
2022-10-31T07:54:13.211Z,17.49
2022-10-31T07:55:12.743Z,17.51
2022-10-31T07:56:12.479Z,17.545
2022-10-31T07:57:13.085Z,17.575
2022-10-31T07:58:12.726Z,17.6316
2022-10-31T07:59:13.189Z,17.655
2022-10-31T08:00:12.766Z,17.683
2022-10-31T08:02:12.866Z,17.74
2022-10-31T08:03:13.001Z,17.75
2022-10-31T08:04:12.531Z,17.78
2022-10-31T08:05:12.967Z,17.8
2022-10-31T08:06:12.648Z,17.845
2022-10-31T08:07:12.529Z,17.873
2022-10-31T08:08:12.887Z,17.884
2022-10-31T08:09:13.140Z,17.89
2022-10-31T08:10:12.687Z,17.915
2022-10-31T08:11:16.599Z,17.935
2022-10-31T08:12:12.876Z,17.955
2022-10-31T08:13:12.462Z,17.99
2022-10-31T08:14:13.278Z,18.015
2022-10-31T08:15:12.570Z,18.03
2022-10-31T08:16:12.771Z,18.05
2022-10-31T08:17:13.088Z,18.095
2022-10-31T08:18:13.142Z,18.106
2022-10-31T08:19:12.739Z,18.115
2022-10-31T08:20:12.866Z,18.143
2022-10-31T08:21:13.064Z,18.1783
2022-10-31T08:22:12.429Z,18.1783
2022-10-31T08:23:13.465Z,18.1891
2022-10-31T08:24:12.390Z,18.195
2022-10-31T08:25:12.124Z,18.215
2022-10-31T08:26:13.021Z,18.22
2022-10-31T08:27:12.179Z,18.24
2022-10-31T08:28:13.321Z,18.265
2022-10-31T08:29:11.375Z,18.275
2022-10-31T08:30:12.803Z,18.317
2022-10-31T08:31:12.862Z,18.339
2022-10-31T08:32:13.009Z,18.389
2022-10-31T08:33:12.362Z,18.44
2022-10-31T08:34:13.005Z,18.48
2022-10-31T08:35:13.111Z,18.515
2022-10-31T08:36:12.442Z,18.555
2022-10-31T08:37:12.917Z,18.595
2022-10-31T08:38:12.338Z,18.6258
2022-10-31T08:39:12.408Z,18.677
2022-10-31T08:40:13.104Z,18.719
2022-10-31T08:41:11.936Z,18.755
2022-10-31T08:42:13.103Z,18.8
2022-10-31T08:43:12.664Z,18.8108
2022-10-31T08:44:11.725Z,18.8683
2022-10-31T08:45:12.707Z,18.91
2022-10-31T08:46:11.823Z,18.95
2022-10-31T08:47:13.282Z,18.98
2022-10-31T08:48:12.360Z,19.01
2022-10-31T08:49:13.096Z,19.035
2022-10-31T08:50:12.515Z,19.065
2022-10-31T08:51:12.357Z,19.11
2022-10-31T08:52:14.599Z,19.1208
2022-10-31T08:53:12.886Z,19.149
2022-10-31T08:54:12.255Z,19.166
2022-10-31T08:55:13.175Z,19.22
2022-10-31T08:56:17.007Z,19.215
2022-10-31T08:57:11.991Z,19.2663
2022-10-31T08:58:12.750Z,19.2684
2022-10-31T08:59:12.811Z,19.28
2022-10-31T09:00:12.250Z,19.3109
2022-10-31T09:01:13.190Z,19.347
2022-10-31T09:02:12.312Z,19.38
2022-10-31T09:03:11.728Z,19.372
2022-10-31T09:04:12.997Z,19.3792
2022-10-31T09:05:12.446Z,19.4072
2022-10-31T09:06:12.082Z,19.43
2022-10-31T09:07:21.614Z,19.42
2022-10-31T09:08:16.285Z,19.445
2022-10-31T09:09:11.675Z,19.46
2022-10-31T09:10:12.546Z,19.485
2022-10-31T09:11:12.179Z,19.535
2022-10-31T09:12:11.900Z,19.56
2022-10-31T09:13:12.296Z,19.6
2022-10-31T09:14:11.816Z,19.66
2022-10-31T09:15:12.542Z,19.715
2022-10-31T09:16:12.236Z,19.75
2022-10-31T09:17:11.503Z,19.8108
2022-10-31T09:18:11.526Z,19.877
2022-10-31T09:19:12.527Z,19.94
2022-10-31T09:20:11.863Z,19.995
2022-10-31T09:21:11.804Z,20.035
2022-10-31T09:22:12.038Z,20.095
2022-10-31T09:23:11.638Z,20.1208
2022-10-31T09:24:11.639Z,20.2
2022-10-31T09:25:12.262Z,20.275
2022-10-31T09:26:11.820Z,20.345
2022-10-31T09:27:11.920Z,20.378
2022-10-31T09:28:12.140Z,20.445
2022-10-31T09:29:15.786Z,20.463
2022-10-31T09:30:13.607Z,20.5218
2022-10-31T09:31:12.009Z,20.56
2022-10-31T09:32:11.677Z,20.59
2022-10-31T09:33:12.482Z,20.6208
2022-10-31T09:34:12.355Z,20.695
2022-10-31T09:36:12.497Z,20.806
2022-10-31T09:37:12.179Z,20.833
2022-10-31T09:38:13.461Z,20.895
2022-10-31T09:39:11.807Z,20.91
2022-10-31T09:40:11.454Z,20.955
2022-10-31T09:41:13.029Z,20.965
2022-10-31T09:42:12.148Z,21.015
2022-10-31T09:43:11.676Z,21.065
2022-10-31T09:44:12.256Z,21.115
2022-10-31T09:45:11.979Z,21.2
2022-10-31T09:46:12.524Z,21.23
2022-10-31T09:47:11.925Z,21.275
2022-10-31T09:48:12.814Z,21.339
2022-10-31T09:49:12.384Z,21.395
2022-10-31T09:50:12.269Z,21.425
2022-10-31T09:51:11.369Z,21.465
2022-10-31T09:52:12.141Z,21.49
2022-10-31T09:53:11.896Z,21.55
2022-10-31T09:54:11.459Z,21.575
2022-10-31T09:55:12.622Z,21.59
2022-10-31T09:56:12.271Z,21.61
2022-10-31T09:57:11.382Z,21.61
2022-10-31T09:58:12.320Z,21.626
2022-10-31T09:59:11.678Z,21.643
2022-10-31T10:00:12.071Z,21.649
2022-10-31T10:01:12.164Z,21.649
2022-10-31T10:02:12.396Z,21.66
2022-10-31T10:03:12.167Z,21.66
2022-10-31T10:04:13.751Z,21.704
2022-10-31T10:05:11.358Z,21.74
2022-10-31T10:06:12.039Z,21.75
2022-10-31T10:07:11.777Z,21.765
2022-10-31T10:08:11.293Z,21.765
2022-10-31T10:09:11.941Z,21.795
2022-10-31T10:10:11.661Z,21.85
2022-10-31T10:11:11.600Z,21.885
2022-10-31T10:12:11.514Z,21.915
2022-10-31T10:13:12.755Z,21.97
2022-10-31T10:14:11.921Z,22.03
2022-10-31T10:15:11.714Z,22.045
2022-10-31T10:16:12.254Z,22.07
2022-10-31T10:17:11.421Z,22.09
2022-10-31T10:18:11.868Z,22.1
2022-10-31T10:19:11.763Z,22.1145
2022-10-31T10:20:12.747Z,22.1307
2022-10-31T10:21:11.229Z,22.164
2022-10-31T10:22:11.458Z,22.177
2022-10-31T10:23:11.610Z,22.173
2022-10-31T10:24:11.750Z,22.164
2022-10-31T10:25:11.993Z,22.195
2022-10-31T10:26:12.068Z,22.1892
2022-10-31T10:27:12.079Z,22.2118
2022-10-31T10:28:11.602Z,22.21
2022-10-31T10:29:12.249Z,22.194
2022-10-31T10:30:11.697Z,22.21
2022-10-31T10:31:11.284Z,22.225
2022-10-31T10:32:12.022Z,22.24
2022-10-31T10:33:12.202Z,22.265
2022-10-31T10:34:11.628Z,22.29
2022-10-31T10:35:12.037Z,22.28
2022-10-31T10:36:11.854Z,22.275
2022-10-31T10:37:12.600Z,22.265
2022-10-31T10:38:13.030Z,22.27
2022-10-31T10:39:12.249Z,22.255
2022-10-31T10:40:12.679Z,22.25
2022-10-31T10:41:12.541Z,22.26
2022-10-31T10:42:11.801Z,22.26
2022-10-31T10:43:12.894Z,22.265
2022-10-31T10:44:12.405Z,22.27
2022-10-31T10:45:12.112Z,22.255
2022-10-31T10:46:12.315Z,22.225
2022-10-31T10:47:12.344Z,22.1783
2022-10-31T10:48:15.234Z,22.177
2022-10-31T10:49:12.917Z,22.145
2022-10-31T10:50:12.263Z,22.16
2022-10-31T10:51:25.579Z,22.1783
2022-10-31T10:53:12.129Z,22.21
2022-10-31T10:54:12.161Z,22.1891
2022-10-31T10:55:12.437Z,22.177
2022-10-31T10:56:12.496Z,22.16
2022-10-31T10:57:12.060Z,22.155
2022-10-31T10:58:12.480Z,22.1316
2022-10-31T10:59:12.431Z,22.137
2022-10-31T11:00:12.264Z,22.137
2022-10-31T11:01:13.089Z,22.143
2022-10-31T11:02:12.470Z,22.183
2022-10-31T11:03:12.024Z,22.1841
2022-10-31T11:04:12.664Z,22.22
2022-10-31T11:05:12.398Z,22.21
2022-10-31T11:06:12.276Z,22.23
2022-10-31T11:07:13.340Z,22.215
2022-10-31T11:08:12.022Z,22.23
2022-10-31T11:09:13.217Z,22.245
2022-10-31T11:10:12.517Z,22.25
2022-10-31T11:11:12.869Z,22.285
2022-10-31T11:12:12.786Z,22.311
2022-10-31T11:13:12.248Z,22.362
2022-10-31T11:14:13.218Z,22.378
2022-10-31T11:15:12.744Z,22.415
2022-10-31T11:16:12.807Z,22.475
2022-10-31T11:17:13.723Z,22.515
2022-10-31T11:18:12.899Z,22.6
2022-10-31T11:19:15.099Z,22.6253
2022-10-31T11:20:16.359Z,22.67
2022-10-31T11:21:16.099Z,22.7407
2022-10-31T11:22:12.935Z,22.7718
2022-10-31T11:23:12.371Z,22.856
2022-10-31T11:24:13.763Z,22.8741
2022-10-31T11:25:12.697Z,22.915
2022-10-31T11:26:12.368Z,22.955
2022-10-31T11:27:12.976Z,23.01
2022-10-31T11:28:12.297Z,23.065
2022-10-31T11:29:12.255Z,23.09
2022-10-31T11:30:12.976Z,23.115
2022-10-31T11:31:12.557Z,23.144
2022-10-31T11:32:12.433Z,23.155
2022-10-31T11:33:13.081Z,23.183
2022-10-31T11:34:12.747Z,23.225
2022-10-31T11:35:15.952Z,23.255
2022-10-31T11:36:12.985Z,23.26
2022-10-31T11:37:12.663Z,23.3216
2022-10-31T11:38:13.089Z,23.362
2022-10-31T11:39:12.970Z,23.3741
2022-10-31T11:40:12.748Z,23.4
2022-10-31T11:41:13.277Z,23.435
2022-10-31T11:42:15.192Z,23.455
2022-10-31T11:43:12.629Z,23.489
2022-10-31T11:44:13.465Z,23.5092
2022-10-31T11:45:12.545Z,23.51
2022-10-31T11:46:13.332Z,23.53
2022-10-31T11:47:16.645Z,23.555
2022-10-31T11:48:12.946Z,23.5436
2022-10-31T11:49:12.508Z,23.554
2022-10-31T11:50:12.872Z,23.555
2022-10-31T11:51:13.047Z,23.585
2022-10-31T11:52:12.400Z,23.61
2022-10-31T11:53:12.527Z,23.6
2022-10-31T11:54:12.472Z,23.58
2022-10-31T11:55:12.282Z,23.55
2022-10-31T11:56:12.864Z,23.53
2022-10-31T11:57:12.952Z,23.515
2022-10-31T11:58:12.281Z,23.49
2022-10-31T11:59:12.743Z,23.48
2022-10-31T12:00:12.682Z,23.435
2022-10-31T12:01:12.127Z,23.445
2022-10-31T12:02:12.898Z,23.435
2022-10-31T12:03:12.306Z,23.425
2022-10-31T12:04:12.064Z,23.395
2022-10-31T12:05:12.828Z,23.4
2022-10-31T12:06:12.102Z,23.329
2022-10-31T12:07:12.759Z,23.275
2022-10-31T12:08:12.733Z,23.245
2022-10-31T12:09:11.996Z,23.25
2022-10-31T12:10:13.539Z,23.235
2022-10-31T12:11:12.708Z,23.225
2022-10-31T12:12:12.201Z,23.24
2022-10-31T12:13:12.675Z,23.27
2022-10-31T12:14:12.658Z,23.27
2022-10-31T12:15:12.184Z,23.305
2022-10-31T12:16:13.997Z,23.333
2022-10-31T12:17:12.871Z,23.35
2022-10-31T12:18:12.458Z,23.3216
2022-10-31T12:19:12.566Z,23.356
2022-10-31T12:20:12.759Z,23.3683
2022-10-31T12:21:13.266Z,23.339
2022-10-31T12:22:12.492Z,23.339
2022-10-31T12:23:16.171Z,23.358
2022-10-31T12:24:13.082Z,23.372
2022-10-31T12:25:12.420Z,23.3741
2022-10-31T12:26:12.028Z,23.35
2022-10-31T12:27:12.691Z,23.362
2022-10-31T12:28:12.913Z,23.38
2022-10-31T12:29:12.267Z,23.395
2022-10-31T12:30:12.396Z,23.4
2022-10-31T12:31:12.378Z,23.435
2022-10-31T12:32:11.695Z,23.39
2022-10-31T12:33:12.476Z,23.43
2022-10-31T12:34:12.327Z,23.45
2022-10-31T12:35:11.859Z,23.435
2022-10-31T12:36:15.193Z,23.45
2022-10-31T12:37:12.126Z,23.465
2022-10-31T12:38:11.498Z,23.495